Time;durP1;ratioP1;P1;durP2;ratioP2;P2;SDS_P1;SDS_P2;PMS_P1;PMS_P2;Temp;Humidity;BMP_temperature;BMP_pressure;BME280_temperature;BME280_humidity;BME280_pressure;Samples;Min_cycle;Max_cycle;Signal;HPM_P1;HPM_P2
2022/10/20 00:01:42;;;;;;;;;;;;;;;12.78;49.15;101279.94;5349559;32;944796;-71
2022/10/20 00:04:44;;;;;;;;;;;;;;;12.89;48.30;101283.06;5378166;32;35728;-71
2022/10/20 00:07:45;;;;;;;;;;;;;;;12.71;48.88;101283.69;5352635;32;34406;-79
2022/10/20 00:10:56;;;;;;;;;;;;;;;12.32;50.46;101291.16;5384761;32;34253;-72
2022/10/20 00:13:59;;;;;;;;;;;;;;;12.48;50.14;101287.09;5377236;32;35337;-73
2022/10/20 00:17:01;;;;;;;;;;;;;;;12.28;50.85;101290.38;5388477;32;35082;-73
2022/10/20 00:20:03;;;;;;;;;;;;;;;12.42;50.49;101289.91;5382085;32;34768;-78
2022/10/20 00:23:05;;;;;;;;;;;;;;;12.36;50.11;101290.97;5382704;32;35356;-79
2022/10/20 00:26:11;;;;;;;;;;;;;;;11.33;52.96;101310.72;5399600;32;35340;-79
2022/10/20 00:29:12;;;;;;;;;;;;;;;10.61;56.35;101317.84;5380013;32;44657;-79
2022/10/20 00:32:14;;;;;;;;;;;;;;;10.52;56.37;101312.84;5392020;32;33285;-81
2022/10/20 00:35:16;;;;;;;;;;;;;;;11.31;54.37;101309.91;5375063;32;34725;-73
2022/10/20 00:38:18;;;;;;;;;;;;;;;11.75;52.39;101311.28;5394247;32;34887;-78
2022/10/20 00:41:20;;;;;;;;;;;;;;;11.65;52.41;101309.81;5364728;32;35552;-71
2022/10/20 00:44:41;;;;;;;;;;;;;;;11.68;52.38;101306.25;5380645;32;34727;-79
2022/10/20 00:47:44;;;;;;;;;;;;;;;11.79;51.69;101312.94;5393061;32;44552;-79
2022/10/20 00:50:50;;;;;;;;;;;;;;;10.47;56.38;101325.22;5380514;32;35226;-79
2022/10/20 00:53:52;;;;;;;;;;;;;;;10.41;56.41;101320.09;5388570;32;34886;-71
2022/10/20 00:56:54;;;;;;;;;;;;;;;10.93;55.06;101324.06;5383694;32;34756;-80
2022/10/20 00:59:56;;;;;;;;;;;;;;;11.14;54.16;101323.50;5379187;32;35144;-78
2022/10/20 01:02:59;;;;;;;;;;;;;;;11.13;54.21;101309.47;5381462;32;35254;-72
2022/10/20 01:06:01;;;;;;;;;;;;;;;10.96;54.91;101319.62;5383437;32;35809;-72
2022/10/20 01:09:03;;;;;;;;;;;;;;;11.48;53.43;101327.88;5374093;32;34212;-79
2022/10/20 01:12:12;;;;;;;;;;;;;;;11.86;51.79;101317.12;5379804;32;35186;-79
2022/10/20 01:15:13;;;;;;;;;;;;;;;10.73;55.65;101333.31;5399689;32;44537;-71
2022/10/20 01:18:18;;;;;;;;;;;;;;;10.83;55.22;101331.34;5379084;32;35574;-78
2022/10/20 01:21:36;;;;;;;;;;;;;;;11.00;54.90;101326.50;5383987;32;34246;-79
2022/10/20 01:24:54;;;;;;;;;;;;;;;11.73;52.25;101312.25;5396336;32;34458;-79
2022/10/20 01:28:08;;;;;;;;;;;;;;;10.88;54.98;101325.94;5368088;32;34372;-78
2022/10/20 01:31:28;;;;;;;;;;;;;;;10.34;57.15;101319.38;5393898;32;44467;-72
2022/10/20 01:34:37;;;;;;;;;;;;;;;10.61;56.29;101322.25;5376825;32;34355;-71
2022/10/20 01:37:40;;;;;;;;;;;;;;;11.30;53.68;101319.56;5383005;32;35456;-71
2022/10/20 01:40:55;;;;;;;;;;;;;;;11.83;51.97;101319.84;5399275;32;36291;-79
2022/10/20 01:43:56;;;;;;;;;;;;;;;11.92;51.58;101324.87;5378549;32;34182;-79
2022/10/20 01:46:58;;;;;;;;;;;;;;;10.99;54.11;101339.69;5394161;32;33941;-78
2022/10/20 01:50:00;;;;;;;;;;;;;;;11.06;54.38;101334.22;5385127;32;35523;-79
2022/10/20 01:53:02;;;;;;;;;;;;;;;11.60;52.80;101328.41;5383118;32;35227;-79
2022/10/20 01:56:04;;;;;;;;;;;;;;;11.75;52.23;101326.22;5397448;32;35033;-80
2022/10/20 01:59:12;;;;;;;;;;;;;;;11.36;53.33;101329.06;5370034;32;34702;-72
2022/10/20 02:02:14;;;;;;;;;;;;;;;11.30;53.63;101335.34;5395608;32;45001;-79
2022/10/20 02:05:34;;;;;;;;;;;;;;;10.54;55.89;101338.16;5384799;32;35750;-79
2022/10/20 02:08:47;;;;;;;;;;;;;;;9.94;58.77;101330.75;5378183;32;34909;-72
2022/10/20 02:11:54;;;;;;;;;;;;;;;10.95;55.69;101328.41;5387127;32;47603;-72
2022/10/20 02:14:56;;;;;;;;;;;;;;;10.94;55.34;101331.91;5374694;32;34238;-78
2022/10/20 02:17:59;;;;;;;;;;;;;;;11.04;54.68;101324.66;5380030;32;34009;-72
2022/10/20 02:21:02;;;;;;;;;;;;;;;10.41;57.06;101330.59;5383690;32;35480;-72
2022/10/20 02:24:04;;;;;;;;;;;;;;;11.05;55.13;101332.50;5395075;32;37012;-78
2022/10/20 02:27:07;;;;;;;;;;;;;;;10.84;56.23;101336.56;5383125;32;35272;-72
2022/10/20 02:30:10;;;;;;;;;;;;;;;10.49;56.94;101332.16;5391399;32;35021;-72
2022/10/20 02:33:12;;;;;;;;;;;;;;;9.41;61.20;101351.06;5382887;32;45134;-72
2022/10/20 02:36:18;;;;;;;;;;;;;;;9.35;61.66;101342.47;5365070;32;35535;-79
2022/10/20 02:39:20;;;;;;;;;;;;;;;9.73;60.47;101347.81;5396493;32;35574;-80
2022/10/20 02:42:22;;;;;;;;;;;;;;;9.50;61.89;101340.38;5368163;32;34969;-72
2022/10/20 02:45:24;;;;;;;;;;;;;;;9.58;61.24;101352.50;5385918;32;35406;-79
2022/10/20 02:48:26;;;;;;;;;;;;;;;10.70;57.01;101354.44;5367743;32;34578;-72
2022/10/20 02:51:27;;;;;;;;;;;;;;;9.88;59.81;101361.53;5383533;32;34274;-79
2022/10/20 02:54:29;;;;;;;;;;;;;;;9.81;60.01;101371.28;5398954;32;34081;-71
2022/10/20 02:57:31;;;;;;;;;;;;;;;9.38;61.43;101366.00;5381189;32;34106;-72
2022/10/20 03:00:33;;;;;;;;;;;;;;;9.38;61.49;101372.09;5395471;32;37596;-78
2022/10/20 03:03:35;;;;;;;;;;;;;;;9.19;62.96;101370.72;5385101;32;36115;-79
2022/10/20 03:06:38;;;;;;;;;;;;;;;9.22;62.90;101366.28;5395330;32;34986;-80
2022/10/20 03:09:40;;;;;;;;;;;;;;;9.68;60.73;101365.41;5356048;32;44777;-72
2022/10/20 03:12:42;;;;;;;;;;;;;;;9.49;62.46;101375.41;5380911;32;34928;-80
2022/10/20 03:15:43;;;;;;;;;;;;;;;9.60;60.28;101377.84;5391295;32;34839;-79
2022/10/20 03:18:45;;;;;;;;;;;;;;;8.98;62.90;101382.44;5378932;32;35471;-72
2022/10/20 03:21:48;;;;;;;;;;;;;;;9.20;62.19;101382.94;5387123;32;35415;-72
2022/10/20 03:24:50;;;;;;;;;;;;;;;9.01;63.72;101392.00;5377817;32;36221;-72
2022/10/20 03:27:52;;;;;;;;;;;;;;;9.73;60.37;101392.44;5395961;32;35043;-80
2022/10/20 03:30:54;;;;;;;;;;;;;;;9.14;62.62;101389.16;5374917;32;35086;-78
2022/10/20 03:33:55;;;;;;;;;;;;;;;10.09;59.36;101387.31;5373592;32;34682;-79
2022/10/20 03:36:57;;;;;;;;;;;;;;;10.11;59.23;101382.94;5395919;32;35029;-71
2022/10/20 03:39:59;;;;;;;;;;;;;;;10.65;56.87;101381.75;5366539;32;33993;-77
2022/10/20 03:43:01;;;;;;;;;;;;;;;10.97;55.40;101381.84;5394675;32;35305;-78
2022/10/20 03:46:04;;;;;;;;;;;;;;;10.90;55.39;101392.56;5378820;32;34693;-79
2022/10/20 03:49:06;;;;;;;;;;;;;;;10.55;56.60;101381.09;5390316;32;34869;-79
2022/10/20 03:52:08;;;;;;;;;;;;;;;10.39;57.32;101385.84;5364116;32;35256;-72
2022/10/20 03:55:10;;;;;;;;;;;;;;;9.75;59.53;101402.91;5383939;32;43345;-72
2022/10/20 03:58:12;;;;;;;;;;;;;;;9.36;61.72;101391.41;5390739;32;35118;-79
2022/10/20 04:01:15;;;;;;;;;;;;;;;10.44;58.03;101383.13;5382691;32;34314;-80
2022/10/20 04:04:17;;;;;;;;;;;;;;;9.80;59.07;101377.44;5393385;32;35184;-79
2022/10/20 04:07:19;;;;;;;;;;;;;;;10.30;57.48;101397.44;5368782;32;34951;-72
2022/10/20 04:10:21;;;;;;;;;;;;;;;9.44;60.38;101392.13;5365951;32;38403;-72
2022/10/20 04:13:22;;;;;;;;;;;;;;;9.59;60.50;101394.44;5383424;32;35551;-71
2022/10/20 04:16:24;;;;;;;;;;;;;;;9.93;59.32;101399.06;5381285;32;34384;-80
2022/10/20 04:19:26;;;;;;;;;;;;;;;10.51;57.26;101388.19;5392542;32;34104;-79
2022/10/20 04:22:28;;;;;;;;;;;;;;;10.40;57.43;101399.84;5369349;32;35675;-71
2022/10/20 04:25:30;;;;;;;;;;;;;;;10.83;55.79;101391.84;5394233;32;34166;-71
2022/10/20 04:28:32;;;;;;;;;;;;;;;10.62;56.32;101393.19;5372239;32;35632;-72
2022/10/20 04:31:34;;;;;;;;;;;;;;;10.49;56.48;101394.38;5393638;32;36300;-79
2022/10/20 04:34:35;;;;;;;;;;;;;;;10.19;57.89;101388.88;5378071;32;35497;-79
2022/10/20 04:37:37;;;;;;;;;;;;;;;10.55;56.59;101386.34;5382239;32;35054;-72
2022/10/20 04:40:40;;;;;;;;;;;;;;;9.91;58.94;101390.34;5390630;32;44472;-72
2022/10/20 04:43:42;;;;;;;;;;;;;;;9.75;59.88;101372.28;5383574;32;34910;-79
2022/10/20 04:46:44;;;;;;;;;;;;;;;10.34;57.88;101386.84;5397045;32;35355;-80
2022/10/20 04:49:46;;;;;;;;;;;;;;;10.24;57.53;101392.31;5384570;32;35096;-80
2022/10/20 04:52:48;;;;;;;;;;;;;;;9.70;59.77;101395.12;5392700;32;34884;-79
2022/10/20 04:55:53;;;;;;;;;;;;;;;9.93;59.13;101396.44;5383318;32;35631;-79
2022/10/20 04:58:55;;;;;;;;;;;;;;;10.52;57.11;101391.69;5373313;32;34862;-72
2022/10/20 05:01:57;;;;;;;;;;;;;;;9.97;58.10;101398.94;5388108;32;34043;-78
2022/10/20 05:04:59;;;;;;;;;;;;;;;10.16;58.50;101393.31;5382746;32;34312;-72
2022/10/20 05:08:01;;;;;;;;;;;;;;;10.47;57.23;101396.19;5385020;32;35112;-79
2022/10/20 05:11:03;;;;;;;;;;;;;;;9.93;58.95;101406.94;5366632;32;35755;-79
2022/10/20 05:14:06;;;;;;;;;;;;;;;10.13;57.75;101399.50;5378252;32;35568;-72
2022/10/20 05:17:08;;;;;;;;;;;;;;;9.90;59.66;101417.50;5376811;32;34897;-85
2022/10/20 05:20:10;;;;;;;;;;;;;;;9.75;59.90;101416.03;5371320;32;44694;-73
2022/10/20 05:23:15;;;;;;;;;;;;;;;8.80;63.82;101435.16;5391251;32;34302;-78
2022/10/20 05:26:17;;;;;;;;;;;;;;;9.90;60.45;101423.59;5379812;32;35659;-74
2022/10/20 05:29:19;;;;;;;;;;;;;;;10.51;58.00;101429.38;5394377;32;34374;-76
2022/10/20 05:32:21;;;;;;;;;;;;;;;10.12;59.30;101434.56;5387399;32;35427;-75
2022/10/20 05:35:23;;;;;;;;;;;;;;;10.38;58.20;101438.44;5386255;32;35310;-76
2022/10/20 05:38:25;;;;;;;;;;;;;;;10.35;58.61;101449.00;5380958;32;34354;-76
2022/10/20 05:41:28;;;;;;;;;;;;;;;10.22;59.23;101451.00;5375622;32;35033;-79
2022/10/20 05:44:35;;;;;;;;;;;;;;;9.85;61.16;101463.97;5410347;32;35291;-75
2022/10/20 05:47:37;;;;;;;;;;;;;;;10.08;60.01;101447.78;5365656;32;35055;-84
2022/10/20 05:50:40;;;;;;;;;;;;;;;10.83;57.77;101458.44;5383885;32;33013;-81
2022/10/20 05:53:44;;;;;;;;;;;;;;;10.92;57.55;101459.12;5372688;32;34284;-69
2022/10/20 05:56:46;;;;;;;;;;;;;;;10.95;57.30;101473.06;5353623;32;35938;-70
2022/10/20 05:59:48;;;;;;;;;;;;;;;10.71;58.80;101461.34;5374572;32;34525;-73
2022/10/20 06:02:52;;;;;;;;;;;;;;;11.03;57.39;101471.13;5377387;32;34219;-77
2022/10/20 06:05:57;;;;;;;;;;;;;;;11.58;55.83;101472.38;5393756;32;35174;-78
2022/10/20 06:08:59;;;;;;;;;;;;;;;11.79;55.99;101475.38;5360363;32;34122;-77
2022/10/20 06:12:01;;;;;;;;;;;;;;;11.55;55.39;101474.22;5385912;32;35373;-76
2022/10/20 06:15:03;;;;;;;;;;;;;;;12.95;52.34;101472.00;5371509;32;34272;-73
2022/10/20 06:18:05;;;;;;;;;;;;;;;13.78;49.49;101478.91;5381455;32;34746;-76
2022/10/20 06:21:12;;;;;;;;;;;;;;;13.27;50.79;101482.41;5383696;32;36279;-75
2022/10/20 06:24:15;;;;;;;;;;;;;;;13.73;50.40;101490.56;5377831;32;45009;-78
2022/10/20 06:27:17;;;;;;;;;;;;;;;14.89;46.88;101487.13;5393124;32;34416;-73
2022/10/20 06:30:19;;;;;;;;;;;;;;;16.05;43.82;101489.34;5371336;32;34284;-80
2022/10/20 06:33:24;;;;;;;;;;;;;;;16.35;43.23;101495.06;5389039;32;35480;-81
2022/10/20 06:36:26;;;;;;;;;;;;;;;16.62;42.81;101492.94;5378313;32;33988;-74
2022/10/20 06:39:28;;;;;;;;;;;;;;;17.14;41.44;101501.09;5371729;32;34192;-75
2022/10/20 06:42:30;;;;;;;;;;;;;;;16.93;42.28;101502.97;5369329;32;34765;-76
2022/10/20 06:45:32;;;;;;;;;;;;;;;18.97;37.12;101493.28;5375179;32;34342;-80
2022/10/20 06:48:35;;;;;;;;;;;;;;;19.37;35.68;101491.81;5390268;32;34199;-77
2022/10/20 06:51:38;;;;;;;;;;;;;;;16.79;39.92;101508.97;5384982;32;35196;-83
2022/10/20 06:54:39;;;;;;;;;;;;;;;18.79;36.18;101494.28;5393921;32;45460;-81
2022/10/20 06:57:42;;;;;;;;;;;;;;;18.38;36.35;101498.28;5373811;32;35271;-78
2022/10/20 07:00:43;;;;;;;;;;;;;;;16.95;39.37;101509.09;5383020;32;34275;-92
2022/10/20 07:03:46;;;;;;;;;;;;;;;17.87;37.53;101504.53;5405073;32;34484;-83
2022/10/20 07:06:48;;;;;;;;;;;;;;;18.47;36.24;101512.88;5370556;32;34275;-86
2022/10/20 07:09:50;;;;;;;;;;;;;;;19.74;34.06;101511.03;5370257;32;36364;-84
2022/10/20 07:12:53;;;;;;;;;;;;;;;19.88;33.71;101508.37;5368203;32;34183;-86
2022/10/20 07:15:55;;;;;;;;;;;;;;;20.46;32.88;101520.84;5393559;32;35262;-79
2022/10/20 07:18:58;;;;;;;;;;;;;;;19.04;35.22;101523.09;5361500;32;34009;-81
2022/10/20 07:22:00;;;;;;;;;;;;;;;19.94;33.38;101524.03;5363732;32;34849;-73
2022/10/20 07:25:05;;;;;;;;;;;;;;;17.46;37.37;101522.59;5389940;32;35288;-77
2022/10/20 07:28:07;;;;;;;;;;;;;;;15.47;41.70;101536.03;5384956;32;36024;-82
2022/10/20 07:31:10;;;;;;;;;;;;;;;15.00;42.70;101539.63;5387067;32;35624;-77
2022/10/20 07:34:14;;;;;;;;;;;;;;;14.83;43.54;101536.78;5375540;32;44743;-85
2022/10/20 07:37:31;;;;;;;;;;;;;;;13.41;47.06;101540.03;5386945;32;34443;-85
2022/10/20 07:40:34;;;;;;;;;;;;;;;15.61;41.92;101523.91;5389458;32;37887;-84
2022/10/20 07:43:36;;;;;;;;;;;;;;;14.19;45.08;101531.22;5389388;32;35163;-87
2022/10/20 07:46:38;;;;;;;;;;;;;;;14.03;45.17;101537.03;5393463;32;35956;-75
2022/10/20 07:49:40;;;;;;;;;;;;;;;13.49;47.07;101538.00;5378126;32;46156;-72
2022/10/20 07:52:49;;;;;;;;;;;;;;;13.73;46.54;101541.63;5391970;32;33807;-74
2022/10/20 07:55:51;;;;;;;;;;;;;;;13.92;46.25;101544.50;5380400;32;35485;-75
2022/10/20 07:58:53;;;;;;;;;;;;;;;12.82;48.79;101549.81;5386147;32;34592;-76
2022/10/20 08:01:55;;;;;;;;;;;;;;;12.74;49.90;101548.22;5390388;32;33230;-75
2022/10/20 08:05:00;;;;;;;;;;;;;;;13.32;48.05;101545.59;5380293;32;34067;-75
2022/10/20 08:08:06;;;;;;;;;;;;;;;14.00;46.38;101544.22;5374731;32;34678;-78
2022/10/20 08:11:08;;;;;;;;;;;;;;;13.74;47.04;101542.47;5355379;32;35262;-85
2022/10/20 08:14:11;;;;;;;;;;;;;;;13.95;45.92;101541.72;5392139;32;44401;-78
2022/10/20 08:17:13;;;;;;;;;;;;;;;13.46;47.16;101538.13;5377180;32;35933;-82
2022/10/20 08:20:15;;;;;;;;;;;;;;;13.36;47.88;101547.25;5384888;32;34350;-73
2022/10/20 08:23:18;;;;;;;;;;;;;;;13.62;46.94;101548.16;5387534;32;34033;-74
2022/10/20 08:26:21;;;;;;;;;;;;;;;12.77;49.80;101559.63;5375322;32;34393;-76
2022/10/20 08:29:23;;;;;;;;;;;;;;;13.31;47.82;101551.81;5393094;32;34319;-73
2022/10/20 08:32:25;;;;;;;;;;;;;;;14.19;45.65;101545.31;5376968;32;36394;-74
2022/10/20 08:35:27;;;;;;;;;;;;;;;14.15;45.67;101558.66;5392993;32;36377;-75
2022/10/20 08:38:29;;;;;;;;;;;;;;;13.66;47.42;101552.44;5381869;32;35220;-81
2022/10/20 08:41:32;;;;;;;;;;;;;;;13.81;46.79;101554.56;5365209;32;35686;-83
2022/10/20 08:44:57;;;;;;;;;;;;;;;14.63;44.81;101556.06;5392367;32;34527;-80
2022/10/20 08:47:59;;;;;;;;;;;;;;;14.79;44.17;101556.34;5374054;32;34073;-75
2022/10/20 08:51:01;;;;;;;;;;;;;;;14.38;45.21;101552.56;5385681;32;34037;-71
2022/10/20 08:54:03;;;;;;;;;;;;;;;14.26;45.60;101559.16;5379623;32;34340;-77
2022/10/20 08:57:35;;;;;;;;;;;;;;;13.77;47.30;101550.28;5372039;32;34759;-77
2022/10/20 09:00:38;;;;;;;;;;;;;;;14.34;45.88;101550.03;5363756;32;34405;-78
2022/10/20 09:03:41;;;;;;;;;;;;;;;13.20;48.51;101567.06;5363828;32;44839;-77
2022/10/20 09:06:43;;;;;;;;;;;;;;;13.09;48.79;101566.56;5388681;32;34227;-77
2022/10/20 09:09:45;;;;;;;;;;;;;;;13.69;47.59;101558.47;5352422;32;35488;-79
2022/10/20 09:12:48;;;;;;;;;;;;;;;14.52;45.32;101558.25;5381025;32;34670;-87
2022/10/20 09:15:50;;;;;;;;;;;;;;;15.04;43.76;101562.44;5384179;32;36038;-73
2022/10/20 09:18:53;;;;;;;;;;;;;;;14.02;46.33;101567.03;5362436;32;35118;-77
2022/10/20 09:21:57;;;;;;;;;;;;;;;14.92;44.03;101565.53;5381877;32;34878;-78
2022/10/20 09:24:59;;;;;;;;;;;;;;;13.81;46.68;101559.84;5382018;32;34311;-78
2022/10/20 09:28:01;;;;;;;;;;;;;;;14.71;45.17;101569.00;5381745;32;35497;-71
2022/10/20 09:31:03;;;;;;;;;;;;;;;14.23;45.95;101560.16;5366285;32;34975;-77
2022/10/20 09:34:23;;;;;;;;;;;;;;;14.28;45.72;101567.91;5373297;32;35361;-77
2022/10/20 09:37:25;;;;;;;;;;;;;;;15.22;43.58;101557.34;5392582;32;34638;-84
2022/10/20 09:40:27;;;;;;;;;;;;;;;14.61;44.91;101558.75;5366720;32;35428;-72
2022/10/20 09:43:29;;;;;;;;;;;;;;;13.94;46.98;101566.44;5394288;32;34146;-84
2022/10/20 09:46:33;;;;;;;;;;;;;;;14.23;46.26;101556.63;5382154;32;34279;-85
2022/10/20 09:49:36;;;;;;;;;;;;;;;15.02;44.44;101563.41;5391415;32;34369;-71
2022/10/20 09:52:46;;;;;;;;;;;;;;;14.83;44.35;101548.25;5383558;32;34348;-72
2022/10/20 09:55:49;;;;;;;;;;;;;;;14.56;45.55;101554.59;5370510;32;44303;-76
2022/10/20 09:58:51;;;;;;;;;;;;;;;15.49;42.99;101553.56;5368950;32;34351;-73
2022/10/20 10:01:54;;;;;;;;;;;;;;;15.69;42.12;101548.31;5385274;32;34368;-79
2022/10/20 10:05:11;;;;;;;;;;;;;;;15.22;43.68;101555.53;5393568;32;35502;-70
2022/10/20 10:08:14;;;;;;;;;;;;;;;16.09;42.77;101548.41;5358951;32;44190;-75
2022/10/20 10:11:16;;;;;;;;;;;;;;;16.58;40.68;101544.44;5376872;32;34417;-84
2022/10/20 10:14:20;;;;;;;;;;;;;;;17.50;37.91;101537.41;5392110;32;35803;-76
2022/10/20 10:17:28;;;;;;;;;;;;;;;18.14;36.88;101536.81;5360707;32;35448;-80
2022/10/20 10:20:35;;;;;;;;;;;;;;;17.56;39.58;101534.47;5393361;32;35160;-73
2022/10/20 10:23:50;;;;;;;;;;;;;;;18.33;38.16;101526.94;5365254;32;34288;-79
2022/10/20 10:26:53;;;;;;;;;;;;;;;18.22;37.17;101523.97;5373208;32;34330;-80
2022/10/20 10:30:13;;;;;;;;;;;;;;;17.58;37.95;101517.50;5361588;32;34389;-80
2022/10/20 10:33:25;;;;;;;;;;;;;;;16.22;41.02;101523.94;5379885;32;43141;-84
2022/10/20 10:36:33;;;;;;;;;;;;;;;17.71;38.22;101514.19;5395326;32;35011;-72
2022/10/20 10:39:35;;;;;;;;;;;;;;;17.80;38.09;101513.78;5375910;32;34268;-72
2022/10/20 10:42:59;;;;;;;;;;;;;;;17.77;38.09;101512.13;5386659;32;34942;-72
2022/10/20 10:46:05;;;;;;;;;;;;;;;17.40;38.47;101504.28;5390513;32;36988;-75
2022/10/20 10:49:07;;;;;;;;;;;;;;;16.35;41.14;101512.78;5368635;32;34267;-73
2022/10/20 10:52:15;;;;;;;;;;;;;;;16.37;40.96;101509.13;5392948;32;34029;-74
2022/10/20 10:55:20;;;;;;;;;;;;;;;16.09;41.90;101503.31;5380911;32;44646;-71
2022/10/20 10:58:46;;;;;;;;;;;;;;;16.72;40.32;101498.69;5383309;32;45395;-74
2022/10/20 11:02:07;;;;;;;;;;;;;;;15.21;43.69;101486.75;5363683;32;35503;-85
2022/10/20 11:05:28;;;;;;;;;;;;;;;17.46;39.24;101474.75;5383669;32;33685;-79
2022/10/20 11:08:33;;;;;;;;;;;;;;;18.62;36.85;101466.78;5373546;32;34291;-80
2022/10/20 11:11:35;;;;;;;;;;;;;;;18.83;36.38;101463.91;5379557;32;34170;-84
2022/10/20 11:14:44;;;;;;;;;;;;;;;20.30;32.98;101461.34;5397459;32;34361;-86
2022/10/20 11:18:02;;;;;;;;;;;;;;;19.18;35.10;101449.41;5384917;32;44524;-84
2022/10/20 11:21:11;;;;;;;;;;;;;;;19.43;34.41;101451.47;5384230;32;35154;-85
2022/10/20 11:24:21;;;;;;;;;;;;;;;19.33;34.93;101446.81;5386835;32;45997;-73
2022/10/20 11:27:28;;;;;;;;;;;;;;;18.94;35.51;101448.16;5374270;32;34018;-79
2022/10/20 11:30:30;;;;;;;;;;;;;;;18.65;36.66;101449.78;5374366;32;34242;-89
2022/10/20 11:33:42;;;;;;;;;;;;;;;18.77;35.65;101434.94;5374462;32;34450;-76
2022/10/20 11:36:44;;;;;;;;;;;;;;;19.46;34.22;101432.66;5372733;32;44361;-75
2022/10/20 11:39:48;;;;;;;;;;;;;;;18.92;35.15;101426.91;5390175;32;35180;-76
2022/10/20 11:43:03;;;;;;;;;;;;;;;17.88;37.37;101421.16;5378385;32;35563;-77
2022/10/20 11:46:12;;;;;;;;;;;;;;;18.71;35.68;101416.66;5394713;32;43224;-87
2022/10/20 11:49:14;;;;;;;;;;;;;;;16.45;39.54;101423.87;5378273;32;34219;-79
2022/10/20 11:52:16;;;;;;;;;;;;;;;18.10;36.10;101410.25;5382625;32;36714;-73
2022/10/20 11:55:27;;;;;;;;;;;;;;;17.92;36.27;101403.25;5396413;32;34235;-73
2022/10/20 11:58:35;;;;;;;;;;;;;;;16.73;39.18;101411.03;5377805;32;34935;-75
2022/10/20 12:01:41;;;;;;;;;;;;;;;17.79;36.77;101414.53;5382991;32;34081;-73
2022/10/20 12:04:58;;;;;;;;;;;;;;;16.63;39.11;101414.19;5380780;32;44744;-74
2022/10/20 12:08:00;;;;;;;;;;;;;;;17.68;36.91;101411.53;5371803;32;35353;-78
2022/10/20 12:11:34;;;;;;;;;;;;;;;17.65;38.22;101411.72;5388782;32;34834;-71
2022/10/20 12:14:57;;;;;;;;;;;;;;;17.30;37.46;101403.75;5379665;32;34352;-69
2022/10/20 12:18:03;;;;;;;;;;;;;;;18.48;35.01;101408.09;5395657;32;34071;-87
2022/10/20 12:21:06;;;;;;;;;;;;;;;18.03;35.52;101396.41;5386977;32;33686;-73
2022/10/20 12:24:28;;;;;;;;;;;;;;;16.82;38.05;101387.62;5356921;32;34223;-76
2022/10/20 12:27:31;;;;;;;;;;;;;;;16.73;38.28;101402.19;5389398;32;34701;-74
2022/10/20 12:30:36;;;;;;;;;;;;;;;16.93;37.92;101398.56;5374046;32;34677;-86
2022/10/20 12:33:48;;;;;;;;;;;;;;;17.28;37.53;101395.00;5387059;32;35074;-78
2022/10/20 12:36:50;;;;;;;;;;;;;;;17.00;37.12;101387.59;5381314;32;34444;-76
2022/10/20 12:39:52;;;;;;;;;;;;;;;16.98;37.67;101380.62;5375249;32;34325;-80
2022/10/20 12:42:54;;;;;;;;;;;;;;;17.41;36.72;101378.44;5382874;32;34509;-81
2022/10/20 12:45:57;;;;;;;;;;;;;;;16.91;38.07;101374.75;5384686;32;35173;-74
2022/10/20 12:49:00;;;;;;;;;;;;;;;17.75;36.47;101370.44;5392794;32;34302;-75
2022/10/20 12:52:03;;;;;;;;;;;;;;;19.87;32.21;101362.63;5383812;32;34307;-74
2022/10/20 12:55:06;;;;;;;;;;;;;;;20.34;30.91;101358.72;5398770;32;33993;-72
2022/10/20 12:58:17;;;;;;;;;;;;;;;18.72;33.64;101368.63;5366742;32;34235;-74
2022/10/20 13:01:19;;;;;;;;;;;;;;;19.02;32.96;101357.16;5372180;32;33548;-76
2022/10/20 13:04:40;;;;;;;;;;;;;;;20.09;31.89;101346.09;5378604;32;33518;-76
2022/10/20 13:07:48;;;;;;;;;;;;;;;21.75;29.05;101344.75;5370746;32;46156;-77
2022/10/20 13:10:52;;;;;;;;;;;;;;;23.01;26.32;101341.81;5384041;32;37580;-77
2022/10/20 13:13:58;;;;;;;;;;;;;;;28.34;20.35;101315.69;5380085;32;35593;-75
2022/10/20 13:17:11;;;;;;;;;;;;;;;26.78;21.46;101324.38;5380116;32;34053;-75
2022/10/20 13:20:27;;;;;;;;;;;;;;;29.42;18.96;101320.84;5392804;32;44379;-79
2022/10/20 13:23:29;;;;;;;;;;;;;;;29.52;18.41;101314.50;5377797;32;34278;-76
2022/10/20 13:26:36;;;;;;;;;;;;;;;30.55;17.31;101318.78;5382902;32;35414;-74
2022/10/20 13:29:39;;;;;;;;;;;;;;;29.59;18.58;101316.41;5368948;32;34517;-72
2022/10/20 13:32:56;;;;;;;;;;;;;;;29.59;18.17;101312.84;5374676;32;44412;-82
2022/10/20 13:36:18;;;;;;;;;;;;;;;26.85;21.37;101326.38;5393727;32;46448;-72
2022/10/20 13:39:26;;;;;;;;;;;;;;;27.11;20.83;101315.84;5380772;32;34802;-72
2022/10/20 13:42:48;;;;;;;;;;;;;;;22.65;26.18;101330.16;5395960;32;34478;-83
2022/10/20 13:45:56;;;;;;;;;;;;;;;22.24;27.38;101327.03;5372224;32;35350;-83
2022/10/20 13:48:58;;;;;;;;;;;;;;;20.83;29.62;101335.03;5353480;32;34064;-76
2022/10/20 13:52:04;;;;;;;;;;;;;;;19.28;31.91;101327.12;5390493;32;33949;-76
2022/10/20 13:55:07;;;;;;;;;;;;;;;18.34;33.45;101339.69;5364964;32;33660;-75
2022/10/20 13:58:13;;;;;;;;;;;;;;;17.75;35.32;101335.88;5389338;32;34324;-85
2022/10/20 14:01:18;;;;;;;;;;;;;;;17.33;35.91;101336.34;5351253;32;44310;-77
2022/10/20 14:04:24;;;;;;;;;;;;;;;16.83;37.06;101328.28;5378586;32;37162;-78
2022/10/20 14:07:33;;;;;;;;;;;;;;;17.13;35.72;101318.78;5379057;32;34312;-79
2022/10/20 14:10:54;;;;;;;;;;;;;;;17.86;34.85;101317.53;5360876;32;34211;-82
2022/10/20 14:13:57;;;;;;;;;;;;;;;17.67;35.74;101324.75;5376954;32;34512;-85
2022/10/20 14:17:00;;;;;;;;;;;;;;;17.60;35.99;101318.06;5376741;32;35300;-78
2022/10/20 14:20:28;;;;;;;;;;;;;;;16.99;37.10;101314.13;5375568;32;34299;-78
2022/10/20 14:23:34;;;;;;;;;;;;;;;17.19;36.72;101312.25;5386396;32;35574;-76
2022/10/20 14:26:36;;;;;;;;;;;;;;;17.71;36.12;101314.81;5381899;32;34716;-76
2022/10/20 14:29:38;;;;;;;;;;;;;;;16.51;38.50;101312.13;5383363;32;34754;-77
2022/10/20 14:32:41;;;;;;;;;;;;;;;16.72;37.57;101315.53;5371180;32;45219;-78
2022/10/20 14:35:45;;;;;;;;;;;;;;;17.13;36.87;101305.50;5387914;32;32948;-78
2022/10/20 14:38:52;;;;;;;;;;;;;;;17.74;35.52;101301.41;5359493;32;34381;-78
2022/10/20 14:41:54;;;;;;;;;;;;;;;16.85;37.39;101314.00;5372606;32;34394;-77
2022/10/20 14:44:56;;;;;;;;;;;;;;;16.01;39.48;101314.56;5395550;32;34306;-76
2022/10/20 14:47:58;;;;;;;;;;;;;;;16.88;37.96;101313.00;5378356;32;34612;-77
2022/10/20 14:51:00;;;;;;;;;;;;;;;16.19;38.64;101314.53;5400195;32;34569;-75
2022/10/20 14:54:21;;;;;;;;;;;;;;;17.48;36.43;101310.75;5387545;32;34862;-76
2022/10/20 14:57:23;;;;;;;;;;;;;;;17.23;36.92;101305.84;5387718;32;35836;-75
2022/10/20 15:00:27;;;;;;;;;;;;;;;16.70;37.83;101297.03;5393656;32;35809;-77
2022/10/20 15:03:28;;;;;;;;;;;;;;;16.36;38.56;101300.47;5382122;32;34443;-76
2022/10/20 15:06:30;;;;;;;;;;;;;;;16.87;37.48;101293.53;5395660;32;35178;-77
2022/10/20 15:09:36;;;;;;;;;;;;;;;16.93;37.51;101297.66;5348615;32;34198;-76
2022/10/20 15:12:42;;;;;;;;;;;;;;;16.12;38.83;101291.91;5399567;32;35193;-76
2022/10/20 15:15:45;;;;;;;;;;;;;;;16.66;38.22;101295.44;5380525;32;43364;-78
2022/10/20 15:18:46;;;;;;;;;;;;;;;16.81;37.91;101292.97;5389861;32;34321;-76
2022/10/20 15:21:50;;;;;;;;;;;;;;;15.98;39.31;101291.72;5390965;32;36113;-79
2022/10/20 15:24:52;;;;;;;;;;;;;;;16.73;38.59;101290.72;5385311;32;34553;-76
2022/10/20 15:27:54;;;;;;;;;;;;;;;16.77;37.96;101289.62;5397939;32;34115;-77
2022/10/20 15:30:57;;;;;;;;;;;;;;;16.74;38.04;101281.81;5379576;32;34259;-77
2022/10/20 15:33:58;;;;;;;;;;;;;;;16.46;38.77;101280.50;5385839;32;34204;-77
2022/10/20 15:37:00;;;;;;;;;;;;;;;15.83;40.11;101284.44;5376907;32;33057;-80
2022/10/20 15:40:03;;;;;;;;;;;;;;;15.79;40.00;101275.81;5384558;32;34142;-78
2022/10/20 15:43:04;;;;;;;;;;;;;;;16.39;38.85;101283.53;5398177;32;36143;-76
2022/10/20 15:46:07;;;;;;;;;;;;;;;16.71;38.14;101274.00;5381000;32;35317;-77
2022/10/20 15:49:09;;;;;;;;;;;;;;;15.82;39.82;101274.78;5389453;32;34990;-78
2022/10/20 15:52:12;;;;;;;;;;;;;;;15.92;39.93;101276.94;5381288;32;44793;-77